Time;durP1;ratioP1;P1;durP2;ratioP2;P2;SDS_P1;SDS_P2;PMS_P1;PMS_P2;Temp;Humidity;BMP_temperature;BMP_pressure;BME280_temperature;BME280_humidity;BME280_pressure;Samples;Min_cycle;Max_cycle;Signal;HPM_P1;HPM_P2
2023/06/06 00:00:09;;;;;;;6.07;2.53;;;;;;;17.81;47.45;94172.75;4979802;28;20046;-72
2023/06/06 00:02:40;;;;;;;3.60;1.90;;;;;;;17.86;46.80;94191.31;4988158;28;20038;-71
2023/06/06 00:05:07;;;;;;;5.10;2.05;;;;;;;17.68;46.83;94155.16;4976547;28;20089;-73
2023/06/06 00:07:34;;;;;;;3.67;1.55;;;;;;;17.90;45.13;94182.22;4977054;28;20034;-72
2023/06/06 00:10:00;;;;;;;5.43;1.98;;;;;;;17.87;44.84;94182.91;4977093;28;20046;-73
2023/06/06 00:12:25;;;;;;;2.97;1.88;;;;;;;17.79;45.03;94172.34;4977773;28;20033;-71
2023/06/06 00:14:51;;;;;;;2.30;1.67;;;;;;;17.78;45.05;94168.88;4975731;28;20450;-72
2023/06/06 00:17:17;;;;;;;3.50;2.17;;;;;;;17.78;43.45;94176.94;4977883;28;20142;-71
2023/06/06 00:19:42;;;;;;;4.95;2.35;;;;;;;17.72;43.72;94174.84;4979027;28;20029;-73
2023/06/06 00:22:11;;;;;;;5.32;1.90;;;;;;;17.68;44.07;94176.69;4976784;28;20088;-73
2023/06/06 00:24:36;;;;;;;3.42;2.08;;;;;;;17.75;43.15;94182.22;4977885;28;20057;-72
2023/06/06 00:27:02;;;;;;;3.80;1.98;;;;;;;17.74;43.46;94183.38;4975363;28;20137;-73
2023/06/06 00:29:27;;;;;;;3.78;1.83;;;;;;;17.68;43.06;94165.94;4976264;28;20065;-73
2023/06/06 00:31:53;;;;;;;3.30;2.20;;;;;;;17.73;43.52;94168.34;4976965;28;20039;-71
2023/06/06 00:34:18;;;;;;;5.05;1.77;;;;;;;17.70;43.22;94172.50;4977867;28;20139;-72
2023/06/06 00:36:43;;;;;;;7.07;2.45;;;;;;;17.77;43.04;94172.69;4977865;28;20054;-73
2023/06/06 00:39:09;;;;;;;4.18;1.92;;;;;;;17.73;43.02;94177.22;4977040;28;20400;-72
2023/06/06 00:41:34;;;;;;;2.95;1.90;;;;;;;17.70;42.96;94172.50;4975994;28;20192;-72
2023/06/06 00:43:59;;;;;;;4.32;2.03;;;;;;;17.36;42.66;94140.97;4976959;28;20161;-71
2023/06/06 00:46:25;;;;;;;6.95;2.05;;;;;;;17.61;42.66;94172.69;4975818;28;21147;-72
2023/06/06 00:48:51;;;;;;;2.63;1.80;;;;;;;17.55;42.53;94166.00;4979579;28;20481;-72
2023/06/06 00:51:17;;;;;;;5.95;2.05;;;;;;;17.44;42.85;94174.97;4974878;28;20310;-72
2023/06/06 00:53:44;;;;;;;7.05;2.05;;;;;;;17.65;42.44;94178.16;4976701;28;20090;-71
2023/06/06 00:56:13;;;;;;;3.70;2.13;;;;;;;17.57;42.62;94184.50;4976232;28;20426;-72
2023/06/06 00:58:40;;;;;;;7.20;1.98;;;;;;;17.57;43.11;94184.50;4975580;28;20129;-72
2023/06/06 01:01:06;;;;;;;3.88;1.90;;;;;;;17.49;44.02;94180.88;4976065;28;20034;-71
2023/06/06 01:03:33;;;;;;;7.47;1.85;;;;;;;17.44;43.81;94191.09;4976704;28;20049;-72
2023/06/06 01:05:58;;;;;;;4.43;1.85;;;;;;;17.37;44.07;94174.78;4974732;28;20141;-73
2023/06/06 01:08:24;;;;;;;3.88;2.03;;;;;;;17.34;44.13;94191.63;4977727;28;20042;-72
2023/06/06 01:10:51;;;;;;;6.45;1.92;;;;;;;17.09;45.15;94175.63;4976059;28;20108;-72
2023/06/06 01:13:33;;;;;;;6.90;1.95;;;;;;;17.14;45.11;94186.13;4975566;28;20491;-73
2023/06/06 01:16:04;;;;;;;5.43;2.22;;;;;;;17.11;45.09;94191.41;4970630;28;20061;-72
2023/06/06 01:18:31;;;;;;;3.30;1.95;;;;;;;17.13;45.19;94189.13;4979066;28;20026;-72
2023/06/06 01:20:58;;;;;;;5.30;1.83;;;;;;;17.10;44.52;94190.63;4973874;28;20588;-72
2023/06/06 01:23:27;;;;;;;2.95;2.25;;;;;;;17.07;43.79;94193.19;4974593;28;20056;-72
2023/06/06 01:25:53;;;;;;;3.60;2.15;;;;;;;17.11;43.48;94194.84;4975742;28;20400;-72
2023/06/06 01:28:19;;;;;;;1.80;1.48;;;;;;;16.91;43.70;94189.72;4974551;28;20046;-73
2023/06/06 01:30:45;;;;;;;4.20;1.73;;;;;;;16.92;43.94;94191.25;4977776;28;20469;-73
2023/06/06 01:33:29;;;;;;;4.72;1.95;;;;;;;16.90;43.95;94199.69;4974150;28;20572;-72
2023/06/06 01:36:27;;;;;;;4.60;1.80;;;;;;;16.78;43.43;94199.72;4973544;28;20041;-72
2023/06/06 01:38:56;;;;;;;4.13;1.45;;;;;;;16.79;42.68;94195.91;4971605;28;20544;-72
2023/06/06 01:41:23;;;;;;;2.97;1.55;;;;;;;16.59;42.59;94199.56;4976959;28;20034;-72
2023/06/06 01:43:51;;;;;;;4.05;2.05;;;;;;;16.15;43.30;94194.06;4975470;28;20534;-72
2023/06/06 01:46:19;;;;;;;3.28;2.00;;;;;;;15.81;43.80;94186.50;4973960;28;20030;-72
2023/06/06 01:48:45;;;;;;;2.85;1.60;;;;;;;15.68;44.27;94187.63;4976632;28;20037;-71
2023/06/06 01:51:11;;;;;;;4.47;1.65;;;;;;;15.66;44.65;94192.53;4975151;28;20503;-71
2023/06/06 01:53:37;;;;;;;6.30;1.60;;;;;;;15.80;44.48;94199.13;4976112;28;20027;-72
2023/06/06 01:56:02;;;;;;;3.83;1.67;;;;;;;15.82;44.02;94190.75;4972471;28;20124;-72
2023/06/06 01:58:28;;;;;;;3.80;1.80;;;;;;;15.76;44.15;94194.78;4975944;28;20206;-73
2023/06/06 02:00:53;;;;;;;2.35;1.80;;;;;;;16.15;44.33;94201.34;4974885;28;20026;-72
2023/06/06 02:03:20;;;;;;;3.08;1.75;;;;;;;16.36;44.31;94198.53;4977010;28;20018;-72
2023/06/06 02:05:45;;;;;;;3.92;1.70;;;;;;;16.33;44.87;94181.97;4974468;28;20744;-72
2023/06/06 02:08:11;;;;;;;4.32;1.40;;;;;;;16.58;45.26;94201.47;4974871;28;20050;-72
2023/06/06 02:10:37;;;;;;;2.00;1.40;;;;;;;16.50;45.73;94188.19;4975318;28;20034;-71
2023/06/06 02:13:03;;;;;;;2.80;1.52;;;;;;;16.60;45.73;94193.06;4974403;28;20038;-72
2023/06/06 02:15:29;;;;;;;2.53;1.95;;;;;;;16.59;46.54;94196.88;4976067;28;20116;-71
2023/06/06 02:17:55;;;;;;;3.38;1.88;;;;;;;16.72;47.39;94203.78;4972086;28;20034;-72
2023/06/06 02:20:20;;;;;;;4.70;1.90;;;;;;;16.73;48.20;94208.78;4975296;28;20045;-72
2023/06/06 02:22:46;;;;;;;3.72;1.73;;;;;;;16.53;48.77;94206.28;4972663;28;20089;-72
2023/06/06 02:25:12;;;;;;;4.68;2.33;;;;;;;16.59;47.54;94221.84;4976666;28;20368;-71
2023/06/06 02:27:38;;;;;;;6.72;2.58;;;;;;;16.68;48.55;94222.47;4973688;28;20093;-72
2023/06/06 02:30:07;;;;;;;3.80;3.00;;;;;;;16.58;48.84;94211.41;4975182;28;20125;-72
2023/06/06 02:32:32;;;;;;;3.95;3.20;;;;;;;16.71;49.28;94215.66;4973188;28;20043;-71
2023/06/06 02:34:59;;;;;;;4.88;3.00;;;;;;;16.55;49.63;94204.84;4974612;28;20066;-73
2023/06/06 02:37:26;;;;;;;5.68;2.72;;;;;;;16.56;50.59;94216.38;4973289;28;20039;-72
2023/06/06 02:39:53;;;;;;;9.52;3.22;;;;;;;16.51;50.08;94221.97;4975241;28;20117;-72
2023/06/06 02:42:18;;;;;;;4.93;3.90;;;;;;;16.13;50.31;94225.84;4974068;28;20069;-73
2023/06/06 02:44:44;;;;;;;9.68;3.13;;;;;;;16.18;50.76;94233.63;4974332;28;20177;-73
2023/06/06 02:47:09;;;;;;;10.23;4.75;;;;;;;16.20;51.03;94231.41;4973754;28;20073;-72
2023/06/06 02:49:35;;;;;;;6.10;3.00;;;;;;;16.31;50.54;94234.44;4974652;28;20623;-72
2023/06/06 02:52:00;;;;;;;9.30;3.28;;;;;;;16.20;50.97;94227.94;4973261;28;20041;-73
2023/06/06 02:54:25;;;;;;;7.68;2.80;;;;;;;16.31;50.31;94224.47;4973077;28;20037;-72
2023/06/06 02:56:51;;;;;;;5.82;3.08;;;;;;;16.07;50.01;94210.28;4975079;28;20078;-72
2023/06/06 02:59:16;;;;;;;4.63;2.55;;;;;;;16.03;48.98;94220.16;4972796;28;20034;-72
2023/06/06 03:01:44;;;;;;;6.00;2.70;;;;;;;16.17;48.62;94237.47;4973423;28;20330;-73
2023/06/06 03:04:11;;;;;;;3.53;2.75;;;;;;;16.09;49.07;94238.34;4974244;28;20369;-73
2023/06/06 03:06:36;;;;;;;7.07;3.17;;;;;;;16.09;49.42;94241.03;4976384;28;20037;-73
2023/06/06 03:09:04;;;;;;;7.07;3.05;;;;;;;16.14;49.11;94235.44;4973630;28;20401;-72
2023/06/06 03:11:30;;;;;;;7.68;3.47;;;;;;;16.11;50.04;94243.38;4975734;28;20034;-72
2023/06/06 03:13:56;;;;;;;6.20;2.60;;;;;;;16.15;49.46;94239.69;4971299;28;20035;-73
2023/06/06 03:16:25;;;;;;;5.43;2.55;;;;;;;16.13;50.14;94244.63;4975999;28;20034;-72
2023/06/06 03:18:51;;;;;;;5.95;3.33;;;;;;;15.99;50.61;94230.00;4972851;28;20084;-73
2023/06/06 03:21:17;;;;;;;7.50;3.35;;;;;;;16.02;50.74;94245.41;4976843;28;20026;-71
2023/06/06 03:23:42;;;;;;;4.82;3.28;;;;;;;16.03;51.13;94242.38;4972175;28;20053;-73
2023/06/06 03:26:08;;;;;;;9.88;4.55;;;;;;;16.12;50.52;94236.91;4972897;28;20085;-73
2023/06/06 03:28:35;;;;;;;7.38;3.00;;;;;;;16.02;50.55;94240.81;4972972;28;20112;-72
2023/06/06 03:31:05;;;;;;;6.07;3.00;;;;;;;16.09;50.23;94241.03;4972731;28;20448;-72
2023/06/06 03:33:31;;;;;;;8.95;3.05;;;;;;;16.12;49.24;94245.72;4974282;28;20037;-72
2023/06/06 03:35:56;;;;;;;10.13;3.25;;;;;;;16.16;48.27;94251.97;4972157;28;20044;-72
2023/06/06 03:38:21;;;;;;;9.73;2.58;;;;;;;16.17;47.57;94248.19;4974705;28;20034;-72
2023/06/06 03:40:47;;;;;;;5.10;2.33;;;;;;;16.07;47.71;94237.13;4971879;28;20161;-72
2023/06/06 03:43:12;;;;;;;2.55;2.05;;;;;;;16.09;47.53;94249.06;4973832;28;20442;-72
2023/06/06 03:45:38;;;;;;;6.97;3.20;;;;;;;16.02;47.68;94250.78;4974493;28;20466;-72
2023/06/06 03:48:03;;;;;;;5.65;3.25;;;;;;;16.01;48.09;94244.63;4973719;28;20108;-71
2023/06/06 03:50:29;;;;;;;5.25;2.50;;;;;;;16.11;48.22;94254.09;4972176;28;20064;-73
2023/06/06 03:52:55;;;;;;;6.82;2.22;;;;;;;16.11;48.29;94238.78;4973166;28;20038;-72
2023/06/06 03:55:20;;;;;;;3.65;1.95;;;;;;;16.11;47.99;94244.16;4974136;28;20038;-72
2023/06/06 03:57:46;;;;;;;6.10;2.13;;;;;;;16.14;47.58;94254.22;4972668;28;20027;-72
2023/06/06 04:00:14;;;;;;;5.05;2.30;;;;;;;16.17;46.56;94229.41;4975074;28;20812;-72
2023/06/06 04:02:41;;;;;;;3.63;1.70;;;;;;;16.37;46.79;94251.09;4972394;28;20091;-72
2023/06/06 04:05:07;;;;;;;2.70;2.15;;;;;;;16.41;45.55;94247.41;4975235;28;20046;-72
2023/06/06 04:07:33;;;;;;;3.60;1.83;;;;;;;16.51;44.60;94246.13;4974017;28;20081;-72
2023/06/06 04:10:00;;;;;;;14.10;2.50;;;;;;;16.56;44.31;94256.66;4971824;28;20026;-73
2023/06/06 04:12:25;;;;;;;7.32;2.28;;;;;;;16.61;44.42;94245.66;4973234;28;20026;-72
2023/06/06 04:14:50;;;;;;;7.90;2.15;;;;;;;16.48;45.56;94236.84;4974013;28;20030;-73
2023/06/06 04:17:18;;;;;;;4.55;1.65;;;;;;;16.40;44.63;94248.50;4972201;28;20038;-72
2023/06/06 04:19:43;;;;;;;4.75;2.50;;;;;;;16.27;45.15;94246.94;4975072;28;20037;-73
2023/06/06 04:22:09;;;;;;;5.60;2.03;;;;;;;16.57;44.31;94255.53;4973343;28;20038;-73
2023/06/06 04:24:34;;;;;;;3.97;2.00;;;;;;;16.59;44.89;94258.63;4972412;28;21602;-72
2023/06/06 04:27:03;;;;;;;7.63;1.75;;;;;;;16.66;45.04;94254.28;4973284;28;20061;-74
2023/06/06 04:29:34;;;;;;;2.53;1.80;;;;;;;16.59;45.51;94245.22;4972059;28;20397;-72
2023/06/06 04:32:01;;;;;;;6.55;2.22;;;;;;;16.54;43.83;94232.03;4974097;28;20046;-73
2023/06/06 04:34:29;;;;;;;5.72;1.92;;;;;;;16.50;44.52;94249.94;4971869;28;20038;-73
2023/06/06 04:37:03;;;;;;;6.13;1.50;;;;;;;16.77;44.22;94235.00;4974644;28;20037;-72
2023/06/06 04:39:36;;;;;;;4.83;2.73;;;;;;;16.90;43.64;94248.03;4977506;28;20037;-72
2023/06/06 04:42:04;;;;;;;2.25;1.90;;;;;;;16.86;43.60;94225.66;4976485;28;20042;-72
2023/06/06 04:44:30;;;;;;;5.68;1.90;;;;;;;16.94;43.56;94240.84;4977274;28;20057;-73
2023/06/06 04:47:00;;;;;;;4.93;1.38;;;;;;;17.19;43.73;94249.59;4973711;28;20590;-73
2023/06/06 04:49:40;;;;;;;6.80;2.47;;;;;;;17.22;43.70;94250.81;4976592;28;20061;-74
2023/06/06 04:52:05;;;;;;;8.50;2.20;;;;;;;17.28;45.20;94252.13;4974581;28;20025;-72
2023/06/06 04:54:33;;;;;;;4.18;1.85;;;;;;;17.40;42.72;94227.88;4978254;28;20104;-72
2023/06/06 04:56:58;;;;;;;4.40;2.00;;;;;;;17.40;44.41;94246.69;4973321;28;20042;-74
2023/06/06 04:59:24;;;;;;;6.28;2.13;;;;;;;17.44;43.79;94242.19;4967910;28;20042;-72
2023/06/06 05:01:51;;;;;;;9.90;2.30;;;;;;;17.13;43.77;94249.06;4975348;28;20390;-73
2023/06/06 05:04:17;;;;;;;4.22;2.30;;;;;;;17.30;44.57;94239.94;4976402;28;20128;-73
2023/06/06 05:06:43;;;;;;;7.80;2.13;;;;;;;17.29;44.90;94238.34;4977964;28;20164;-73
2023/06/06 05:09:08;;;;;;;6.20;2.22;;;;;;;17.35;45.08;94253.13;4971800;28;20062;-72
2023/06/06 05:11:34;;;;;;;6.50;2.53;;;;;;;17.76;45.46;94251.81;4976962;28;20039;-72
2023/06/06 05:14:00;;;;;;;4.30;2.22;;;;;;;17.97;44.56;94257.75;4970976;28;20444;-73
2023/06/06 05:16:26;;;;;;;6.15;2.72;;;;;;;17.88;44.36;94241.00;4975130;28;20125;-73
2023/06/06 05:18:51;;;;;;;11.18;2.55;;;;;;;18.10;45.08;94244.19;4972278;28;20104;-72
2023/06/06 05:21:19;;;;;;;4.75;2.20;;;;;;;18.35;44.02;94251.69;4972480;28;20100;-73
2023/06/06 05:23:44;;;;;;;4.97;2.13;;;;;;;17.36;44.83;94226.97;4973655;28;20520;-73
2023/06/06 05:26:10;;;;;;;4.05;2.30;;;;;;;17.73;44.70;94255.22;4973566;28;20038;-73
2023/06/06 05:28:37;;;;;;;6.53;1.70;;;;;;;18.04;42.99;94262.50;4976729;28;20302;-73
2023/06/06 05:31:03;;;;;;;3.30;1.30;;;;;;;17.74;42.15;94247.94;4972588;28;20030;-72
2023/06/06 05:33:31;;;;;;;4.07;1.42;;;;;;;17.21;41.51;94255.41;4972166;28;20076;-73
2023/06/06 05:35:57;;;;;;;5.65;1.42;;;;;;;17.08;42.40;94243.91;4972996;28;20038;-72
2023/06/06 05:38:25;;;;;;;7.65;1.63;;;;;;;17.26;43.27;94255.16;4972186;28;20084;-72
2023/06/06 05:40:50;;;;;;;2.72;1.48;;;;;;;17.25;43.77;94253.63;4972995;28;20038;-72
2023/06/06 05:43:16;;;;;;;6.72;2.17;;;;;;;17.25;43.55;94236.69;4976169;28;20575;-72
2023/06/06 05:45:42;;;;;;;4.20;1.67;;;;;;;17.32;43.04;94243.03;4971485;28;20049;-72
2023/06/06 05:48:07;;;;;;;7.93;1.80;;;;;;;17.51;44.45;94245.81;4975028;28;20121;-73
2023/06/06 05:50:33;;;;;;;4.20;1.40;;;;;;;17.60;43.35;94248.34;4974296;28;20406;-73
2023/06/06 05:52:58;;;;;;;5.78;1.20;;;;;;;17.52;41.98;94235.84;4972900;28;20042;-73
2023/06/06 05:55:31;;;;;;;5.03;1.50;;;;;;;17.02;44.39;94247.97;4974865;28;20043;-72
2023/06/06 05:57:58;;;;;;;6.15;1.33;;;;;;;17.55;44.27;94243.25;4975830;28;20335;-72
2023/06/06 06:00:25;;;;;;;3.03;1.50;;;;;;;17.81;43.41;94248.88;4976887;28;20152;-72
2023/06/06 06:02:53;;;;;;;9.13;1.88;;;;;;;17.64;42.90;94249.25;4974034;28;20089;-73
2023/06/06 06:05:19;;;;;;;5.25;1.95;;;;;;;17.01;43.59;94232.97;4988013;28;20047;-72
2023/06/06 06:07:47;;;;;;;6.05;1.85;;;;;;;17.14;44.27;94247.16;4974827;28;20500;-72
2023/06/06 06:10:13;;;;;;;4.97;1.38;;;;;;;17.10;43.54;94225.56;4975044;28;20034;-73
2023/06/06 06:12:38;;;;;;;5.55;1.58;;;;;;;17.52;43.52;94236.63;4975016;28;20511;-72
2023/06/06 06:15:04;;;;;;;5.50;2.22;;;;;;;17.03;43.77;94219.97;4973357;28;20043;-73
2023/06/06 06:17:30;;;;;;;6.40;1.92;;;;;;;17.09;44.20;94242.78;4970665;28;20034;-73
2023/06/06 06:19:55;;;;;;;3.83;1.70;;;;;;;16.96;43.68;94251.25;4974853;28;20042;-72
2023/06/06 06:22:21;;;;;;;5.22;1.40;;;;;;;16.97;44.00;94247.44;4971568;28;20049;-73
2023/06/06 06:24:46;;;;;;;3.63;1.75;;;;;;;16.97;45.31;94240.16;4975858;28;20582;-73
2023/06/06 06:27:11;;;;;;;5.35;1.52;;;;;;;17.53;43.03;94242.81;4973376;28;20046;-72
2023/06/06 06:29:37;;;;;;;4.78;1.40;;;;;;;17.67;42.77;94237.78;4971450;28;20055;-72
2023/06/06 06:32:02;;;;;;;6.88;1.95;;;;;;;17.09;44.13;94234.72;4972055;28;20551;-72
2023/06/06 06:34:28;;;;;;;3.35;1.70;;;;;;;17.32;44.80;94234.97;4974604;28;20054;-73
2023/06/06 06:36:54;;;;;;;8.07;1.60;;;;;;;17.65;44.55;94241.94;4968748;28;20112;-72
2023/06/06 06:39:19;;;;;;;7.97;1.50;;;;;;;17.51;44.24;94239.66;4971983;28;20804;-74
2023/06/06 06:41:45;;;;;;;4.70;2.08;;;;;;;17.61;44.20;94239.94;4967121;28;20060;-72
2023/06/06 06:44:11;;;;;;;2.47;1.42;;;;;;;17.81;43.92;94248.09;4968564;28;20258;-73
2023/06/06 06:46:36;;;;;;;5.10;1.48;;;;;;;18.20;42.02;94238.25;4970597;28;20053;-72
2023/06/06 06:49:02;;;;;;;9.15;2.25;;;;;;;18.30;42.26;94224.25;4967597;28;20649;-72
2023/06/06 06:51:29;;;;;;;8.57;1.73;;;;;;;18.23;43.36;94237.59;4973157;28;20022;-73
2023/06/06 06:53:57;;;;;;;3.05;1.70;;;;;;;18.37;44.03;94205.59;4971450;28;20041;-72
2023/06/06 06:56:24;;;;;;;3.72;1.75;;;;;;;18.35;42.52;94230.16;4970392;28;20509;-73
2023/06/06 06:58:50;;;;;;;5.38;1.42;;;;;;;18.76;41.31;94228.75;4970166;28;20504;-73
2023/06/06 07:01:18;;;;;;;6.13;2.10;;;;;;;18.88;41.20;94225.91;4969372;28;20588;-72
2023/06/06 07:03:46;;;;;;;3.63;1.50;;;;;;;18.76;42.08;94215.28;4970849;28;20384;-72
2023/06/06 07:06:12;;;;;;;2.88;1.67;;;;;;;19.08;42.24;94239.38;4974776;28;20041;-72
2023/06/06 07:08:41;;;;;;;4.93;1.60;;;;;;;19.00;42.00;94229.59;4973262;28;20042;-72
2023/06/06 07:11:07;;;;;;;4.80;1.67;;;;;;;18.42;42.00;94219.56;4970976;28;20360;-73
2023/06/06 07:13:32;;;;;;;3.35;1.50;;;;;;;18.67;42.03;94240.84;4982406;28;20057;-72
2023/06/06 07:15:58;;;;;;;6.55;1.83;;;;;;;19.19;40.40;94235.75;4972537;28;21268;-72
2023/06/06 07:18:24;;;;;;;3.05;1.65;;;;;;;19.13;40.64;94234.47;4972200;28;20018;-73
2023/06/06 07:20:49;;;;;;;4.03;1.75;;;;;;;19.07;41.79;94221.63;4969279;28;20038;-72
2023/06/06 07:23:15;;;;;;;3.90;1.92;;;;;;;19.21;42.03;94221.91;4974158;28;20074;-72
2023/06/06 07:25:41;;;;;;;2.97;1.55;;;;;;;19.08;41.42;94244.75;4971645;28;20504;-73
2023/06/06 07:28:07;;;;;;;3.55;1.80;;;;;;;19.22;42.03;94231.53;4971105;28;20046;-72
2023/06/06 07:30:32;;;;;;;3.20;1.40;;;;;;;19.25;42.17;94206.56;4974374;28;20030;-72
2023/06/06 07:32:57;;;;;;;4.68;1.70;;;;;;;19.54;41.60;94241.03;4973093;28;20787;-72
2023/06/06 07:35:24;;;;;;;3.55;1.30;;;;;;;19.25;41.65;94228.16;4972573;28;20489;-73
2023/06/06 07:37:50;;;;;;;3.47;1.55;;;;;;;19.51;42.00;94219.38;4973643;28;20038;-72
2023/06/06 07:40:16;;;;;;;7.78;2.13;;;;;;;19.89;40.66;94240.06;4971094;28;20038;-72
2023/06/06 07:42:42;;;;;;;8.05;2.72;;;;;;;19.83;42.00;94228.78;4973938;28;20069;-73
2023/06/06 07:45:08;;;;;;;3.08;1.77;;;;;;;19.54;40.87;94211.34;4967151;28;20599;-72
2023/06/06 07:47:34;;;;;;;5.18;1.88;;;;;;;19.42;41.50;94227.69;4965106;28;20038;-72
2023/06/06 07:50:00;;;;;;;3.40;1.92;;;;;;;19.61;42.60;94234.97;4973333;28;20047;-73
2023/06/06 07:52:25;;;;;;;4.82;1.95;;;;;;;19.69;41.86;94228.56;4971938;28;20045;-73
2023/06/06 07:54:51;;;;;;;4.20;1.58;;;;;;;19.85;40.85;94233.84;4972125;28;20034;-71
2023/06/06 07:57:16;;;;;;;6.72;2.90;;;;;;;19.85;40.97;94228.44;4970880;28;20033;-73
2023/06/06 07:59:45;;;;;;;4.40;1.73;;;;;;;19.99;41.46;94239.47;4971899;28;20129;-73
2023/06/06 08:02:14;;;;;;;3.78;2.20;;;;;;;20.15;41.02;94230.06;4973004;28;20038;-72
2023/06/06 08:04:41;;;;;;;5.00;1.83;;;;;;;19.99;41.71;94223.25;4972281;28;20719;-73
2023/06/06 08:07:06;;;;;;;3.40;1.48;;;;;;;19.95;40.39;94227.81;4963771;28;20551;-73
2023/06/06 08:09:32;;;;;;;5.10;2.08;;;;;;;19.77;40.61;94242.94;4961813;28;20033;-73
2023/06/06 08:11:57;;;;;;;3.58;1.90;;;;;;;20.05;40.22;94232.59;4967382;28;20514;-73
2023/06/06 08:14:22;;;;;;;3.63;2.03;;;;;;;20.02;40.37;94233.31;4969901;28;20042;-71
2023/06/06 08:16:49;;;;;;;8.20;2.15;;;;;;;20.04;40.72;94236.47;4977236;28;20357;-72
2023/06/06 08:19:14;;;;;;;4.43;2.20;;;;;;;20.22;40.78;94226.72;4975565;28;20035;-72
2023/06/06 08:21:40;;;;;;;4.65;2.05;;;;;;;20.10;41.61;94234.97;4978256;28;20065;-73
2023/06/06 08:24:05;;;;;;;11.68;2.22;;;;;;;20.22;41.60;94228.66;4990715;28;20034;-72
2023/06/06 08:26:31;;;;;;;5.93;1.85;;;;;;;20.08;39.69;94235.38;4975810;28;20050;-72
2023/06/06 08:28:56;;;;;;;4.15;2.10;;;;;;;20.13;40.65;94218.06;4975200;28;20038;-72
2023/06/06 08:31:23;;;;;;;5.05;2.25;;;;;;;20.33;40.91;94227.66;4975753;28;20034;-73
2023/06/06 08:33:49;;;;;;;4.30;2.25;;;;;;;20.36;40.68;94212.63;4975044;28;20105;-74
2023/06/06 08:36:15;;;;;;;7.57;1.90;;;;;;;20.59;40.29;94219.50;4975190;28;20025;-73
2023/06/06 08:38:43;;;;;;;6.57;1.88;;;;;;;20.62;40.63;94211.84;4975652;28;20034;-72
2023/06/06 08:41:10;;;;;;;4.32;2.15;;;;;;;20.63;40.23;94216.09;4977169;28;20249;-72
2023/06/06 08:43:39;;;;;;;6.88;1.67;;;;;;;20.55;39.54;94218.69;4974866;28;20034;-72
2023/06/06 08:46:04;;;;;;;2.65;1.77;;;;;;;20.55;41.04;94218.69;4975283;28;20042;-72
2023/06/06 08:48:33;;;;;;;7.38;2.25;;;;;;;20.64;39.88;94220.34;4976325;28;20400;-72
2023/06/06 08:51:00;;;;;;;5.18;2.38;;;;;;;20.27;39.92;94201.31;4975272;28;20058;-72
2023/06/06 08:53:26;;;;;;;5.75;2.33;;;;;;;20.35;40.19;94211.84;4976191;28;20044;-72
2023/06/06 08:55:56;;;;;;;3.25;2.10;;;;;;;20.15;40.31;94194.16;4975526;28;20561;-73
2023/06/06 08:58:22;;;;;;;5.40;2.42;;;;;;;20.36;40.12;94202.63;4974606;28;20515;-72
2023/06/06 09:00:49;;;;;;;6.45;1.92;;;;;;;20.53;40.88;94214.81;4975081;28;20086;-73
2023/06/06 09:03:17;;;;;;;6.53;2.15;;;;;;;20.68;40.73;94205.72;4976698;28;20141;-72
2023/06/06 09:05:43;;;;;;;7.07;2.30;;;;;;;20.37;40.67;94206.88;4975269;28;20476;-73
2023/06/06 09:08:09;;;;;;;8.85;2.50;;;;;;;20.10;40.56;94192.56;4976510;28;20056;-74
2023/06/06 09:10:34;;;;;;;7.25;2.50;;;;;;;20.33;39.57;94202.56;4974546;28;20552;-73
2023/06/06 09:13:00;;;;;;;5.63;1.90;;;;;;;20.46;40.70;94183.06;4976346;28;20496;-73
2023/06/06 09:15:27;;;;;;;4.45;2.72;;;;;;;20.17;41.00;94191.94;4976618;28;20571;-73
2023/06/06 09:17:54;;;;;;;3.65;2.08;;;;;;;20.19;41.20;94181.53;4976508;28;20030;-72
2023/06/06 09:20:21;;;;;;;5.20;2.83;;;;;;;20.37;40.86;94181.78;4974684;28;20092;-71
2023/06/06 09:22:48;;;;;;;6.28;2.03;;;;;;;20.41;40.68;94190.72;4976021;28;20100;-72
2023/06/06 09:25:18;;;;;;;9.13;2.80;;;;;;;20.63;40.44;94180.97;4976600;28;20564;-73
2023/06/06 09:27:44;;;;;;;6.95;2.30;;;;;;;20.52;41.46;94192.41;4974108;28;20061;-70
2023/06/06 09:30:34;;;;;;;3.95;2.17;;;;;;;20.75;40.93;94183.41;4977864;28;20057;-73
2023/06/06 09:33:02;;;;;;;5.38;2.47;;;;;;;20.26;42.08;94184.34;4968583;28;20077;-73
2023/06/06 09:35:35;;;;;;;6.28;2.72;;;;;;;20.53;42.19;94177.00;4976866;28;20039;-71
2023/06/06 09:38:19;;;;;;;7.93;2.85;;;;;;;20.76;40.37;94180.34;4973910;28;20037;-73
2023/06/06 09:40:50;;;;;;;3.85;2.03;;;;;;;20.86;41.00;94178.91;4976285;28;20034;-73
2023/06/06 09:43:22;;;;;;;4.20;2.78;;;;;;;20.67;40.32;94176.38;4975512;28;20796;-70
2023/06/06 09:45:50;;;;;;;4.32;2.40;;;;;;;20.80;41.48;94175.75;4972849;28;20556;-72
2023/06/06 09:48:23;;;;;;;3.88;2.25;;;;;;;20.65;42.32;94173.25;4973605;28;20034;-73
2023/06/06 09:50:49;;;;;;;7.22;3.00;;;;;;;20.41;42.45;94180.69;4973017;28;20112;-73
2023/06/06 09:53:15;;;;;;;7.38;2.83;;;;;;;20.73;41.19;94169.50;4974455;28;20034;-73
2023/06/06 09:55:42;;;;;;;3.88;2.28;;;;;;;20.32;43.23;94177.47;4974765;28;20563;-74
2023/06/06 09:58:15;;;;;;;7.60;2.40;;;;;;;20.62;43.81;94168.59;4974035;28;20093;-73
2023/06/06 10:00:43;;;;;;;7.55;3.47;;;;;;;20.63;41.95;94137.72;4973412;28;20041;-72
2023/06/06 10:03:11;;;;;;;3.63;2.47;;;;;;;20.69;41.89;94155.94;4974251;28;20598;-73
2023/06/06 10:05:38;;;;;;;7.82;2.85;;;;;;;20.78;42.96;94147.53;4975593;28;20464;-73
2023/06/06 10:08:05;;;;;;;11.02;2.70;;;;;;;20.78;42.93;94145.59;4974786;28;20149;-71
2023/06/06 10:10:32;;;;;;;5.32;2.58;;;;;;;20.98;41.71;94148.94;4988784;28;20042;-72
2023/06/06 10:12:58;;;;;;;6.13;2.80;;;;;;;21.20;41.54;94149.94;4976086;28;20022;-72
2023/06/06 10:15:25;;;;;;;3.75;2.47;;;;;;;21.31;42.07;94146.19;4971091;28;20133;-71
2023/06/06 10:17:51;;;;;;;4.57;2.65;;;;;;;21.13;42.65;94142.53;4976093;28;20492;-73
2023/06/06 10:20:16;;;;;;;4.53;2.83;;;;;;;21.21;42.22;94148.81;4974139;28;20146;-72
2023/06/06 10:22:42;;;;;;;4.45;2.22;;;;;;;20.99;42.58;94145.09;4975722;28;20404;-71
2023/06/06 10:25:13;;;;;;;4.32;2.45;;;;;;;20.99;42.63;94128.88;4988736;28;20039;-71
2023/06/06 10:27:45;;;;;;;5.85;2.50;;;;;;;21.33;44.23;94132.28;4974238;28;20046;-72
2023/06/06 10:30:30;;;;;;;3.25;2.35;;;;;;;21.52;41.78;94134.75;4972812;28;20034;-71
2023/06/06 10:33:01;;;;;;;3.10;2.25;;;;;;;21.13;42.36;94134.41;4972359;28;20049;-72
2023/06/06 10:35:27;;;;;;;5.75;3.20;;;;;;;21.07;42.34;94135.91;4971113;28;20073;-72
2023/06/06 10:38:07;;;;;;;4.40;2.40;;;;;;;21.23;42.19;94135.66;4973870;28;20104;-72
2023/06/06 10:40:53;;;;;;;4.90;2.70;;;;;;;21.55;43.04;94122.47;4967636;28;20476;-73
2023/06/06 10:43:20;;;;;;;3.88;2.78;;;;;;;21.65;42.07;94111.72;4983102;28;20038;-72
2023/06/06 10:45:49;;;;;;;8.05;2.45;;;;;;;21.77;41.82;94124.16;4974031;28;20113;-72
2023/06/06 10:48:15;;;;;;;10.52;2.40;;;;;;;21.66;41.30;94110.53;4974120;28;20042;-71
2023/06/06 10:51:00;;;;;;;5.70;2.28;;;;;;;21.32;42.54;94117.19;4972193;28;20055;-73
2023/06/06 10:53:26;;;;;;;6.38;3.05;;;;;;;21.32;40.82;94109.84;4972320;28;20771;-72
2023/06/06 10:55:51;;;;;;;4.88;2.22;;;;;;;21.67;41.08;94105.91;4972606;28;20713;-71
2023/06/06 10:58:25;;;;;;;9.27;3.15;;;;;;;21.29;42.76;94109.84;4971863;28;20396;-71
2023/06/06 11:01:00;;;;;;;5.50;2.40;;;;;;;21.15;42.94;94096.19;4973549;28;20030;-72
2023/06/06 11:03:34;;;;;;;2.97;2.00;;;;;;;21.18;41.78;94098.91;4972974;28;20018;-71
2023/06/06 11:06:09;;;;;;;4.28;2.08;;;;;;;21.38;41.27;94100.25;4972381;28;20513;-72
2023/06/06 11:08:36;;;;;;;9.55;2.67;;;;;;;20.99;42.08;94091.81;4975707;28;20038;-71
2023/06/06 11:11:27;;;;;;;3.88;2.42;;;;;;;20.74;42.86;94085.34;4970193;28;20496;-71
2023/06/06 11:14:07;;;;;;;3.80;2.20;;;;;;;21.21;41.34;94081.19;4990408;28;20104;-72
2023/06/06 11:16:45;;;;;;;5.40;2.42;;;;;;;21.48;41.98;94085.25;4972342;28;20449;-71
2023/06/06 11:19:14;;;;;;;5.05;2.10;;;;;;;21.31;41.13;94075.88;4981985;28;20038;-72
2023/06/06 11:21:42;;;;;;;4.38;2.45;;;;;;;21.14;41.98;94076.47;4971902;28;20121;-72
2023/06/06 11:24:09;;;;;;;7.03;2.28;;;;;;;21.09;40.42;94047.06;4972871;28;20515;-71
2023/06/06 11:26:36;;;;;;;4.18;1.98;;;;;;;21.26;40.29;94057.28;4967776;28;20425;-71
2023/06/06 11:29:03;;;;;;;3.72;1.98;;;;;;;21.20;41.32;94064.19;4970469;28;20165;-72
2023/06/06 11:31:30;;;;;;;5.63;2.58;;;;;;;21.26;42.80;94056.50;4969566;28;20046;-72
2023/06/06 11:34:13;;;;;;;5.00;2.22;;;;;;;21.26;41.85;94067.31;4971539;28;20627;-71